createdAt,value
2018-09-06T00:01:14.465Z,18.47
2018-09-06T00:03:43.965Z,18.46
2018-09-06T00:06:12.749Z,18.44
2018-09-06T00:08:42.379Z,18.45
2018-09-06T00:11:11.191Z,18.42
2018-09-06T00:13:40.339Z,18.41
2018-09-06T00:16:09.815Z,18.39
2018-09-06T00:18:39.424Z,18.40
2018-09-06T00:21:08.456Z,18.38
2018-09-06T00:23:38.583Z,18.37
2018-09-06T00:26:08.123Z,18.37
2018-09-06T00:28:37.885Z,18.35
2018-09-06T00:31:07.308Z,18.31
2018-09-06T00:33:37.327Z,18.31
2018-09-06T00:36:07.347Z,18.33
2018-09-06T00:38:36.645Z,18.33
2018-09-06T00:41:05.768Z,18.31
2018-09-06T00:43:34.626Z,18.29
2018-09-06T00:46:03.518Z,18.31
2018-09-06T00:48:32.651Z,18.32
2018-09-06T00:51:01.910Z,18.36
2018-09-06T00:53:30.667Z,18.38
2018-09-06T00:55:59.524Z,18.36
2018-09-06T00:58:29.027Z,18.34
2018-09-06T01:00:58.153Z,18.33
2018-09-06T01:03:27.319Z,18.33
2018-09-06T01:05:56.268Z,18.33
2018-09-06T01:08:25.071Z,18.34
2018-09-06T01:10:54.327Z,18.37
2018-09-06T01:13:23.719Z,18.39
2018-09-06T01:15:52.677Z,18.41
2018-09-06T01:18:22.370Z,18.41
2018-09-06T01:20:51.979Z,18.40
2018-09-06T01:23:21.521Z,18.40
2018-09-06T01:25:50.450Z,18.39
2018-09-06T01:28:20.597Z,18.37
2018-09-06T01:30:50.673Z,18.37
2018-09-06T01:33:20.190Z,18.37
2018-09-06T01:35:56.752Z,18.34
2018-09-06T01:38:26.169Z,18.33
2018-09-06T01:40:55.007Z,18.32
2018-09-06T01:43:23.939Z,18.31
2018-09-06T01:45:52.769Z,18.30
2018-09-06T01:48:21.750Z,18.34
2018-09-06T01:50:51.188Z,18.35
2018-09-06T01:53:20.259Z,18.34
2018-09-06T01:55:49.175Z,18.34
2018-09-06T01:58:18.647Z,18.36
2018-09-06T02:00:47.488Z,18.37
2018-09-06T02:03:16.359Z,18.38
2018-09-06T02:05:45.219Z,18.39
2018-09-06T02:08:14.000Z,18.41
2018-09-06T02:10:43.555Z,18.43
2018-09-06T02:13:12.419Z,18.45
2018-09-06T02:15:41.268Z,18.44
2018-09-06T02:18:10.694Z,18.43
2018-09-06T02:20:39.492Z,18.43
2018-09-06T02:23:09.164Z,18.41
2018-09-06T02:25:38.599Z,18.38
2018-09-06T02:28:08.105Z,18.37
2018-09-06T02:30:37.655Z,18.37
2018-09-06T02:33:07.022Z,18.37
2018-09-06T02:35:37.096Z,18.34
2018-09-06T02:38:07.128Z,18.30
2018-09-06T02:40:38.886Z,18.25
2018-09-06T02:43:10.324Z,18.21
2018-09-06T02:45:39.244Z,18.15
2018-09-06T02:48:08.518Z,18.10
2018-09-06T02:50:43.096Z,18.04
2018-09-06T02:53:14.977Z,18.01
2018-09-06T02:55:44.086Z,17.98
2018-09-06T02:58:13.640Z,17.93
2018-09-06T03:00:42.438Z,17.89
2018-09-06T03:03:11.289Z,17.86
2018-09-06T03:05:40.141Z,17.83
2018-09-06T03:08:09.529Z,17.80
2018-09-06T03:10:43.553Z,17.80
2018-09-06T03:13:12.334Z,17.82
2018-09-06T03:15:41.130Z,17.83
2018-09-06T03:18:10.532Z,17.87
2018-09-06T03:20:39.316Z,17.87
2018-09-06T03:23:09.543Z,17.89
2018-09-06T03:25:38.615Z,17.91
2018-09-06T03:28:07.950Z,17.94
2018-09-06T03:30:37.238Z,17.93
2018-09-06T03:33:06.436Z,17.95
2018-09-06T03:35:36.213Z,17.96
2018-09-06T03:38:05.728Z,17.96
2018-09-06T03:40:35.714Z,17.95
2018-09-06T03:43:04.702Z,17.97
2018-09-06T03:45:33.527Z,17.95
2018-09-06T03:48:02.408Z,17.96
2018-09-06T03:50:31.162Z,17.96
2018-09-06T03:53:00.044Z,17.96
2018-09-06T03:55:28.824Z,17.94
2018-09-06T03:57:58.811Z,17.92
2018-09-06T04:00:27.619Z,17.91
2018-09-06T04:02:56.563Z,17.89
2018-09-06T04:05:26.571Z,17.92
2018-09-06T04:07:55.968Z,17.94
2018-09-06T04:10:25.642Z,17.95
2018-09-06T04:12:54.477Z,17.96
2018-09-06T04:15:23.261Z,17.95
2018-09-06T04:17:52.755Z,17.97
2018-09-06T04:20:22.225Z,17.98
2018-09-06T04:22:52.909Z,17.97
2018-09-06T04:25:22.084Z,17.96
2018-09-06T04:27:51.028Z,17.94
2018-09-06T04:30:19.864Z,17.93
2018-09-06T04:32:48.683Z,17.90
2018-09-06T04:35:18.132Z,17.89
2018-09-06T04:37:47.534Z,17.91
2018-09-06T04:40:16.891Z,17.95
2018-09-06T04:42:45.736Z,17.95
2018-09-06T04:45:14.563Z,17.94
2018-09-06T04:47:43.434Z,17.94
2018-09-06T04:50:12.223Z,17.96
2018-09-06T04:52:41.530Z,17.97
2018-09-06T04:55:10.399Z,17.94
2018-09-06T04:57:40.144Z,17.97
2018-09-06T05:00:09.034Z,17.95
2018-09-06T05:02:41.336Z,17.93
2018-09-06T05:05:10.619Z,17.99
2018-09-06T05:07:39.451Z,18.01
2018-09-06T05:10:09.055Z,18.04
2018-09-06T05:12:38.204Z,18.07
2018-09-06T05:15:07.782Z,18.10
2018-09-06T05:17:37.773Z,18.16
2018-09-06T05:20:07.592Z,18.19
2018-09-06T05:22:37.680Z,18.20
2018-09-06T05:25:07.288Z,18.20
2018-09-06T05:27:50.843Z,18.21
2018-09-06T05:30:19.678Z,18.22
2018-09-06T05:32:48.594Z,18.23
2018-09-06T05:35:18.369Z,18.24
2018-09-06T05:37:48.163Z,18.27
2018-09-06T05:40:17.437Z,18.27
2018-09-06T05:42:47.057Z,18.28
2018-09-06T05:45:15.853Z,18.27
2018-09-06T05:47:47.745Z,18.25
2018-09-06T05:50:16.658Z,18.25
2018-09-06T05:52:45.494Z,18.27
2018-09-06T05:55:14.324Z,18.30
2018-09-06T05:57:43.738Z,18.32
2018-09-06T06:00:17.744Z,18.33
2018-09-06T06:02:47.538Z,18.33
2018-09-06T06:05:17.055Z,18.33
2018-09-06T06:07:57.538Z,18.36
2018-09-06T06:10:28.067Z,18.40
2018-09-06T06:12:57.093Z,18.41
2018-09-06T06:15:25.984Z,18.45
2018-09-06T06:17:55.744Z,18.48
2018-09-06T06:20:24.591Z,18.54
2018-09-06T06:22:53.981Z,18.54
2018-09-06T06:25:22.810Z,18.58
2018-09-06T06:27:51.843Z,18.65
2018-09-06T06:30:20.983Z,18.74
2018-09-06T06:32:49.859Z,18.85
2018-09-06T06:35:19.660Z,18.98
2018-09-06T06:37:48.890Z,19.05
2018-09-06T06:40:18.275Z,19.16
2018-09-06T06:42:47.199Z,19.25
2018-09-06T06:45:46.792Z,19.26
2018-09-06T06:48:15.574Z,19.28
2018-09-06T06:50:44.532Z,19.32
2018-09-06T06:53:13.348Z,19.35
2018-09-06T06:55:42.242Z,19.33
2018-09-06T06:58:11.706Z,19.34
2018-09-06T07:00:42.392Z,19.35
2018-09-06T07:03:12.683Z,19.31
2018-09-06T07:05:42.025Z,19.33
2018-09-06T07:08:11.460Z,19.32
2018-09-06T07:10:41.083Z,19.32
2018-09-06T07:13:10.153Z,19.29
2018-09-06T07:15:38.915Z,19.26
2018-09-06T07:18:09.334Z,19.25
2018-09-06T07:20:38.642Z,19.25
2018-09-06T07:23:08.985Z,19.27
2018-09-06T07:25:38.291Z,19.28
2018-09-06T07:28:07.894Z,19.26
2018-09-06T07:30:37.197Z,19.27
2018-09-06T07:33:06.559Z,19.32
2018-09-06T07:35:36.189Z,19.35
2018-09-06T07:38:06.030Z,19.44
2018-09-06T07:40:37.394Z,19.50
2018-09-06T07:43:06.842Z,19.54
2018-09-06T07:45:36.129Z,19.56
2018-09-06T07:48:05.073Z,19.56
2018-09-06T07:50:33.901Z,19.61
2018-09-06T07:53:02.787Z,19.62
2018-09-06T07:55:31.569Z,19.64
2018-09-06T07:58:01.300Z,19.69
2018-09-06T08:00:30.145Z,19.72
2018-09-06T08:02:58.960Z,19.78
2018-09-06T08:05:27.887Z,19.86
2018-09-06T08:07:56.705Z,19.98
2018-09-06T08:10:26.092Z,20.11
2018-09-06T08:12:54.841Z,20.23
2018-09-06T08:15:23.698Z,20.35
2018-09-06T08:17:53.221Z,20.45
2018-09-06T08:20:22.210Z,20.54
2018-09-06T08:22:51.950Z,20.62
2018-09-06T08:25:21.045Z,20.71
2018-09-06T08:27:49.827Z,20.71
2018-09-06T08:30:18.673Z,20.73
2018-09-06T08:32:47.483Z,20.73
2018-09-06T08:35:17.044Z,20.76
2018-09-06T08:37:46.527Z,20.72
2018-09-06T08:40:16.104Z,20.77
2018-09-06T08:42:45.941Z,20.84
2018-09-06T08:45:14.797Z,20.96
2018-09-06T08:47:43.663Z,21.07
2018-09-06T08:50:12.423Z,21.19
2018-09-06T08:52:41.355Z,21.29
2018-09-06T08:55:11.016Z,21.36
2018-09-06T08:57:40.545Z,21.44
2018-09-06T09:00:09.352Z,21.48
2018-09-06T09:02:38.942Z,21.57
2018-09-06T09:05:08.347Z,21.67
2018-09-06T09:07:37.679Z,21.79
2018-09-06T09:10:08.069Z,21.84
2018-09-06T09:12:37.433Z,21.90
2018-09-06T09:15:07.512Z,22.02
2018-09-06T09:17:38.176Z,22.07
2018-09-06T09:20:07.849Z,22.13
2018-09-06T09:22:38.136Z,22.17
2018-09-06T09:25:07.989Z,22.18
2018-09-06T09:27:37.396Z,22.20
2018-09-06T09:30:06.708Z,22.17
2018-09-06T09:32:35.921Z,22.11
2018-09-06T09:35:05.799Z,22.08
2018-09-06T09:37:36.300Z,22.11
2018-09-06T09:40:06.347Z,22.12
2018-09-06T09:42:35.868Z,22.16
2018-09-06T09:48:10.267Z,22.28
2018-09-06T09:53:08.329Z,22.31
2018-09-06T09:55:37.628Z,22.38
2018-09-06T09:58:08.529Z,22.47
2018-09-06T10:00:39.718Z,22.54
2018-09-06T10:03:13.779Z,22.52
2018-09-06T10:05:47.763Z,22.50
2018-09-06T10:08:21.828Z,22.52
2018-09-06T10:10:52.532Z,22.63
2018-09-06T10:13:21.638Z,22.77
2018-09-06T10:15:50.633Z,22.82
2018-09-06T10:18:20.621Z,22.95
2018-09-06T10:20:49.694Z,23.02
2018-09-06T10:23:19.056Z,23.14
2018-09-06T10:25:48.042Z,23.10
2018-09-06T10:28:17.022Z,23.21
2018-09-06T10:30:45.926Z,23.26
2018-09-06T10:33:14.733Z,23.27
2018-09-06T10:35:44.840Z,23.36
2018-09-06T10:38:13.789Z,23.45
2018-09-06T10:40:43.163Z,23.57
2018-09-06T10:43:12.051Z,23.68
2018-09-06T10:45:41.071Z,23.80
2018-09-06T10:48:09.879Z,23.89
2018-09-06T10:50:39.213Z,23.95
2018-09-06T10:53:09.694Z,24.03
2018-09-06T10:55:38.460Z,23.99
2018-09-06T10:58:08.327Z,24.10
2018-09-06T11:00:37.705Z,24.19
2018-09-06T11:03:07.840Z,24.18
2018-09-06T11:05:37.227Z,24.17
2018-09-06T11:08:07.731Z,24.06
2018-09-06T11:10:52.195Z,24.09
2018-09-06T11:13:21.305Z,24.18
2018-09-06T11:15:50.383Z,24.37
2018-09-06T11:18:20.038Z,24.50
2018-09-06T11:20:49.040Z,24.41
2018-09-06T11:23:18.541Z,24.42
2018-09-06T11:25:47.444Z,24.47
2018-09-06T11:28:16.253Z,24.58
2018-09-06T11:30:45.205Z,24.63
2018-09-06T11:33:14.171Z,24.53
2018-09-06T11:35:43.795Z,24.25
2018-09-06T11:41:11.961Z,23.83
2018-09-06T11:43:40.777Z,23.77
2018-09-06T11:46:10.076Z,23.67
2018-09-06T11:48:38.916Z,23.56
2018-09-06T11:51:08.955Z,23.43
2018-09-06T11:53:38.820Z,23.37
2018-09-06T11:56:08.284Z,23.43
2018-09-06T11:58:38.471Z,23.54
2018-09-06T12:01:08.011Z,23.63
2018-09-06T12:03:37.553Z,23.53
2018-09-06T12:06:06.915Z,23.54
2018-09-06T12:08:37.585Z,23.47
2018-09-06T12:11:06.953Z,23.43
2018-09-06T12:13:36.052Z,23.39
2018-09-06T12:16:05.847Z,23.32
2018-09-06T12:18:34.670Z,23.22
2018-09-06T12:21:03.511Z,23.23
2018-09-06T12:23:33.036Z,23.19
2018-09-06T12:26:01.872Z,23.19
2018-09-06T12:28:30.758Z,23.21
2018-09-06T12:30:59.597Z,23.29
2018-09-06T12:33:28.590Z,23.40
2018-09-06T12:35:58.304Z,23.54
2018-09-06T12:38:27.201Z,23.65
2018-09-06T12:40:56.009Z,23.76
2018-09-06T12:43:25.537Z,23.86
2018-09-06T12:45:54.998Z,23.89
2018-09-06T12:48:23.829Z,23.97
2018-09-06T12:50:52.632Z,24.10
2018-09-06T12:53:21.533Z,24.20
2018-09-06T12:55:50.405Z,24.28
2018-09-06T12:58:19.906Z,24.22
2018-09-06T13:00:48.793Z,24.22
2018-09-06T13:03:17.795Z,24.28
2018-09-06T13:05:47.435Z,24.40
2018-09-06T13:08:16.444Z,24.45
2018-09-06T13:10:45.790Z,24.44
2018-09-06T13:13:14.630Z,24.34
2018-09-06T13:15:43.461Z,24.39
2018-09-06T13:18:12.720Z,24.27
2018-09-06T13:20:41.612Z,24.23
2018-09-06T13:23:11.855Z,24.20
2018-09-06T13:25:40.713Z,24.13
2018-09-06T13:28:09.769Z,23.94
2018-09-06T13:30:38.571Z,23.82
2018-09-06T13:33:08.228Z,23.78
2018-09-06T13:35:39.093Z,23.68
2018-09-06T13:38:08.276Z,23.62
2018-09-06T13:40:37.469Z,23.66
2018-09-06T13:43:07.434Z,23.74
2018-09-06T13:45:37.367Z,23.78
2018-09-06T13:48:06.356Z,23.74
2018-09-06T13:50:35.506Z,23.72
2018-09-06T13:53:04.275Z,23.65
2018-09-06T13:55:33.672Z,23.58
2018-09-06T13:58:03.060Z,23.43
2018-09-06T14:00:31.863Z,23.31
2018-09-06T14:03:00.694Z,23.13
2018-09-06T14:05:30.461Z,22.88
2018-09-06T14:07:59.243Z,22.72
2018-09-06T14:10:28.521Z,22.56
2018-09-06T14:12:57.917Z,22.46
2018-09-06T14:15:26.685Z,22.40
2018-09-06T14:17:55.943Z,22.34
2018-09-06T14:20:24.727Z,22.28
2018-09-06T14:22:54.268Z,22.27
2018-09-06T14:25:23.033Z,22.33
2018-09-06T14:27:51.931Z,22.41
2018-09-06T14:30:20.735Z,22.49
2018-09-06T14:32:49.492Z,22.51
2018-09-06T14:35:18.819Z,22.54
2018-09-06T14:37:48.290Z,22.57
2018-09-06T14:40:18.501Z,22.70
2018-09-06T14:42:48.455Z,22.89
2018-09-06T14:45:17.567Z,23.08
2018-09-06T14:47:46.896Z,23.26
2018-09-06T14:50:15.925Z,23.27
2018-09-06T14:52:45.713Z,23.26
2018-09-06T14:55:14.827Z,23.19
2018-09-06T14:57:44.540Z,23.07
2018-09-06T15:00:16.423Z,22.94
2018-09-06T15:02:45.442Z,22.80
2018-09-06T15:05:15.024Z,22.61
2018-09-06T15:07:43.810Z,22.41
2018-09-06T15:10:12.991Z,22.29
2018-09-06T15:12:41.774Z,22.25
2018-09-06T15:15:10.776Z,22.17
2018-09-06T15:17:40.234Z,22.18
2018-09-06T15:20:09.129Z,22.10
2018-09-06T15:22:40.090Z,21.98
2018-09-06T15:25:09.381Z,21.94
2018-09-06T15:27:39.301Z,21.84
2018-09-06T15:30:08.279Z,21.80
2018-09-06T15:32:37.376Z,21.83
2018-09-06T15:35:06.890Z,21.83
2018-09-06T15:37:36.558Z,21.84
2018-09-06T15:40:05.759Z,21.89
2018-09-06T15:42:35.536Z,21.93
2018-09-06T15:45:04.610Z,21.96
2018-09-06T15:47:33.416Z,22.03
2018-09-06T15:50:02.352Z,22.09
2018-09-06T15:52:31.179Z,22.19
2018-09-06T15:55:00.031Z,22.26
2018-09-06T15:57:29.447Z,22.37
2018-09-06T15:59:58.164Z,22.47
2018-09-06T16:02:27.390Z,22.67
2018-09-06T16:04:56.120Z,22.91
2018-09-06T16:07:24.888Z,23.21
2018-09-06T16:09:54.412Z,23.43
2018-09-06T16:12:23.196Z,23.65
2018-09-06T16:14:51.971Z,23.84
2018-09-06T16:17:21.406Z,23.95
2018-09-06T16:19:50.284Z,24.06
2018-09-06T16:22:19.932Z,24.09
2018-09-06T16:24:49.327Z,24.18
2018-09-06T16:27:18.068Z,24.09
2018-09-06T16:29:47.496Z,24.08
2018-09-06T16:32:16.402Z,24.08
2018-09-06T16:34:46.700Z,24.15
2018-09-06T16:37:16.264Z,24.16
2018-09-06T16:39:44.927Z,24.18
2018-09-06T16:42:14.422Z,24.20
2018-09-06T16:44:43.176Z,24.24
2018-09-06T16:47:12.656Z,24.19
2018-09-06T16:49:41.472Z,24.17
2018-09-06T16:52:10.912Z,23.83
2018-09-06T16:54:39.700Z,23.24
2018-09-06T16:57:09.747Z,22.70
2018-09-06T16:59:38.561Z,22.25
2018-09-06T17:02:08.854Z,21.86
2018-09-06T17:04:37.853Z,21.50
2018-09-06T17:07:07.227Z,21.25
2018-09-06T17:09:36.763Z,20.99
2018-09-06T17:12:06.092Z,20.79
2018-09-06T17:14:35.519Z,20.60
2018-09-06T17:17:05.507Z,20.48
2018-09-06T17:19:34.342Z,20.34
2018-09-06T17:22:03.633Z,20.24
2018-09-06T17:24:33.027Z,20.14
2018-09-06T17:27:01.783Z,20.06
2018-09-06T17:29:30.520Z,19.98
2018-09-06T17:31:59.996Z,19.89
2018-09-06T17:34:29.206Z,19.79
2018-09-06T17:36:58.555Z,19.69
2018-09-06T17:39:27.719Z,19.61
2018-09-06T17:41:57.068Z,19.53
2018-09-06T17:44:26.093Z,19.47
2018-09-06T17:46:54.916Z,19.39
2018-09-06T17:49:23.947Z,19.33
2018-09-06T17:51:52.692Z,19.25
2018-09-06T17:54:21.585Z,19.17
2018-09-06T17:56:50.361Z,19.08
2018-09-06T17:59:20.779Z,19.01
2018-09-06T18:01:49.644Z,18.90
2018-09-06T18:04:19.527Z,18.78
2018-09-06T18:06:48.324Z,18.71
2018-09-06T18:09:18.471Z,18.63
2018-09-06T18:11:47.393Z,18.56
2018-09-06T18:14:16.469Z,18.50
2018-09-06T18:16:45.963Z,18.42
2018-09-06T18:19:14.744Z,18.37
2018-09-06T18:21:43.525Z,18.31
2018-09-06T18:24:13.064Z,18.27
2018-09-06T18:26:41.935Z,18.22
2018-09-06T18:29:10.714Z,18.15
2018-09-06T18:31:40.094Z,18.10
2018-09-06T18:34:09.328Z,18.06
2018-09-06T18:36:38.800Z,18.04
2018-09-06T18:39:08.073Z,18.05
2018-09-06T18:41:37.614Z,17.98
2018-09-06T18:44:06.894Z,17.93
2018-09-06T18:46:35.671Z,17.87
2018-09-06T18:49:04.543Z,17.81
2018-09-06T18:51:33.889Z,17.75
2018-09-06T18:54:02.643Z,17.70
2018-09-06T18:56:31.401Z,17.62
2018-09-06T18:59:00.674Z,17.59
2018-09-06T19:01:29.564Z,17.54
2018-09-06T19:03:58.936Z,17.51
2018-09-06T19:06:27.733Z,17.45
2018-09-06T19:08:57.355Z,17.40
2018-09-06T19:11:26.172Z,17.37
2018-09-06T19:13:54.921Z,17.31
2018-09-06T19:16:24.296Z,17.26
2018-09-06T19:18:53.058Z,17.24
2018-09-06T19:21:21.817Z,17.18
2018-09-06T19:23:51.603Z,17.15
2018-09-06T19:26:20.439Z,17.10
2018-09-06T19:28:49.428Z,17.06
2018-09-06T19:31:18.311Z,16.99
2018-09-06T19:33:48.379Z,16.94
2018-09-06T19:36:17.812Z,16.90
2018-09-06T19:38:48.104Z,16.87
2018-09-06T19:41:17.854Z,16.83
2018-09-06T19:43:47.477Z,16.79
2018-09-06T19:46:16.778Z,16.75
2018-09-06T19:48:45.634Z,16.68
2018-09-06T19:51:14.484Z,16.66
2018-09-06T19:53:43.350Z,16.62
2018-09-06T19:56:12.322Z,16.59
2018-09-06T19:58:41.858Z,16.54
2018-09-06T20:01:10.616Z,16.49
2018-09-06T20:03:40.176Z,16.45
2018-09-06T20:06:08.513Z,16.42
2018-09-06T20:08:39.366Z,16.40
2018-09-06T20:11:08.188Z,16.39
2018-09-06T20:13:37.335Z,16.38
2018-09-06T20:16:07.251Z,16.40
2018-09-06T20:18:36.171Z,16.38
2018-09-06T20:21:05.066Z,16.35
2018-09-06T20:23:34.579Z,16.34
2018-09-06T20:26:03.376Z,16.32
2018-09-06T20:28:32.673Z,16.30
2018-09-06T20:31:01.440Z,16.27
2018-09-06T20:33:30.205Z,16.27
2018-09-06T20:35:59.600Z,16.24
2018-09-06T20:38:29.000Z,16.19
2018-09-06T20:40:57.731Z,16.12
2018-09-06T20:43:26.998Z,16.07
2018-09-06T20:45:55.935Z,16.03
2018-09-06T20:48:24.777Z,15.96
2018-09-06T20:50:53.613Z,15.85
2018-09-06T20:53:22.422Z,15.76
2018-09-06T20:55:51.473Z,15.71
2018-09-06T20:58:21.011Z,15.68
2018-09-06T21:00:50.102Z,15.68
2018-09-06T21:03:19.884Z,15.73
2018-09-06T21:05:48.779Z,15.75
2018-09-06T21:08:17.527Z,15.80
2018-09-06T21:10:47.106Z,15.87
2018-09-06T21:13:15.932Z,15.91
2018-09-06T21:15:44.972Z,15.95
2018-09-06T21:18:14.307Z,15.99
2018-09-06T21:20:43.177Z,16.01
2018-09-06T21:23:12.913Z,16.02
2018-09-06T21:25:41.880Z,16.03
2018-09-06T21:28:10.741Z,16.01
2018-09-06T21:30:39.567Z,15.96
2018-09-06T21:33:08.342Z,15.93
2018-09-06T21:35:38.097Z,15.92
2018-09-06T21:38:07.172Z,15.88
2018-09-06T21:40:37.020Z,15.86
2018-09-06T21:43:07.167Z,15.82
2018-09-06T21:45:35.985Z,15.77
2018-09-06T21:48:05.015Z,15.74
2018-09-06T21:50:33.811Z,15.72
2018-09-06T21:53:02.573Z,15.73
2018-09-06T21:55:31.483Z,15.77
2018-09-06T21:58:01.110Z,15.81
2018-09-06T22:00:29.985Z,15.83
2018-09-06T22:03:05.392Z,15.87
2018-09-06T22:05:34.310Z,15.88
2018-09-06T22:08:03.131Z,15.89
2018-09-06T22:10:32.501Z,15.90
2018-09-06T22:14:04.542Z,15.98
2018-09-06T22:16:34.025Z,16.01
2018-09-06T22:19:03.098Z,16.00
2018-09-06T22:21:31.869Z,16.00
2018-09-06T22:26:40.814Z,15.96
2018-09-06T22:29:10.798Z,15.93
2018-09-06T22:31:40.355Z,15.89
2018-09-06T22:34:09.688Z,15.82
2018-09-06T22:36:38.954Z,15.76
2018-09-06T22:39:10.499Z,15.72
2018-09-06T22:41:39.805Z,15.66
2018-09-06T22:44:08.615Z,15.61
2018-09-06T22:46:37.655Z,15.57
2018-09-06T22:49:06.987Z,15.50
2018-09-06T22:51:35.984Z,15.47
2018-09-06T22:54:05.676Z,15.43
2018-09-06T22:56:34.528Z,15.39
2018-09-06T22:59:04.454Z,15.36
2018-09-06T23:01:33.232Z,15.32
2018-09-06T23:04:02.809Z,15.29
2018-09-06T23:06:31.632Z,15.27
2018-09-06T23:09:00.916Z,15.24
2018-09-06T23:11:29.679Z,15.20
2018-09-06T23:13:58.536Z,15.18
2018-09-06T23:16:28.305Z,15.18
2018-09-06T23:18:57.023Z,15.16
2018-09-06T23:21:25.853Z,15.15
2018-09-06T23:23:55.346Z,15.13
2018-09-06T23:26:32.984Z,15.15
2018-09-06T23:29:01.822Z,15.11
2018-09-06T23:31:31.323Z,15.10
2018-09-06T23:34:00.942Z,15.08
2018-09-06T23:36:30.541Z,15.08
2018-09-06T23:38:59.547Z,15.05
2018-09-06T23:41:30.682Z,15.04
2018-09-06T23:43:59.434Z,15.05
2018-09-06T23:46:28.214Z,15.06
2018-09-06T23:48:57.038Z,15.06
2018-09-06T23:51:25.806Z,15.08
2018-09-06T23:53:54.667Z,15.06
2018-09-06T23:56:23.499Z,15.04
2018-09-06T23:58:55.000Z,15.01
